Vfpa 1 — VG2773 — position and weather

sailwx.info

Track history (hours):
 
Tides and Currents Weather Stations Pressure Air Temp Water Temp Dewpoint Dewpoint Depression Visibility Wind Speed Wind Dir Waves Ship Positions

Vfpa 1

Last reported at 2015-Apr-02 16:33 UTC. Time now 2015-May-05 13:17 UTC.
Position N 49°18' W 123°02'.
Warning: this ship's position is 32 days out of date.

; draft 1.4 m.

Type: Dredging. MMSI: 316014014.

Date/timePositionNaut miles runAvg speedWind from/ knotsBaromVisibWave heightAir tempDewpointWater temp
2015-Apr-02 16:33N 49°18' W 123°02'3 2.9
2015-Apr-02 15:33N 49°19' W 123°06'1 1.4
2015-Apr-02 14:33N 49°17' W 123°06'0 0.0
2015-Apr-02 13:31N 49°17' W 123°06'0 0.0
2015-Apr-02 12:33N 49°17' W 123°06'0 0.0
2015-Apr-02 11:33N 49°17' W 123°06'0 0.0
2015-Apr-02 10:33N 49°17' W 123°06'0 0.0
2015-Apr-02 09:30N 49°17' W 123°06'0 0.0
2015-Apr-02 08:29N 49°17' W 123°06'0 0.0
2015-Apr-02 07:33N 49°17' W 123°06'0 0.0
2015-Apr-02 06:33N 49°17' W 123°06'0 0.0
2015-Apr-02 05:33N 49°17' W 123°06'0 0.0
2015-Apr-02 04:33N 49°17' W 123°06'0 0.0
2015-Apr-02 03:28N 49°17' W 123°06'0 0.1
2015-Apr-02 02:33N 49°17' W 123°06'0 0.0
2015-Apr-02 01:33N 49°17' W 123°06'0 0.0
2015-Apr-02 00:33N 49°17' W 123°06'0 0.0
2015-Apr-01 23:33N 49°17' W 123°06'0 0.0
2015-Apr-01 22:33N 49°17' W 123°06'0 0.0
2015-Apr-01 21:32N 49°17' W 123°06'0 0.0
2015-Apr-01 20:33N 49°17' W 123°06'0 0.0
2015-Apr-01 19:33N 49°17' W 123°06'0 0.4
2015-Apr-01 18:33N 49°17' W 123°07'0 0.4
2015-Apr-01 17:33N 49°17' W 123°06'0 0.0
2015-Apr-01 16:33N 49°17' W 123°06'0 0.4
2015-Apr-01 15:33N 49°18' W 123°06'0 0.4
2015-Apr-01 14:33N 49°17' W 123°06'0 0.0
2015-Apr-01 13:34N 49°17' W 123°06'0 0.0
2015-Apr-01 12:32N 49°17' W 123°06'0 0.0
2015-Apr-01 11:34N 49°17' W 123°06'0 0.0
2015-Apr-01 10:34N 49°17' W 123°06'0 0.0
2015-Apr-01 09:19N 49°17' W 123°06'0 0.1
2015-Apr-01 08:23N 49°17' W 123°06'0 0.0
2015-Apr-01 07:34N 49°17' W 123°06'0 0.0
2015-Apr-01 06:34N 49°17' W 123°06'0 0.0
2015-Apr-01 04:32N 49°17' W 123°06'0 0.0
2015-Apr-01 03:33N 49°17' W 123°06'0 0.0
2015-Apr-01 02:32N 49°17' W 123°06'0 0.0
2015-Apr-01 01:33N 49°17' W 123°06'0 0.0
2015-Apr-01 00:33N 49°17' W 123°06'0 0.0
2015-Mar-31 23:34N 49°17' W 123°06'0 0.0
2015-Mar-31 22:34N 49°17' W 123°06'0 0.0
2015-Mar-31 21:34N 49°17' W 123°06'0 0.0
2015-Mar-31 20:20N 49°17' W 123°06'0 0.1
2015-Mar-31 19:34N 49°17' W 123°06'0 0.0
2015-Mar-31 18:34N 49°17' W 123°06'0 0.0
2015-Mar-31 17:29N 49°17' W 123°06'0 0.0
2015-Mar-31 16:33N 49°17' W 123°06'0 0.0
2015-Mar-31 15:33N 49°17' W 123°06'0 0.0
2015-Mar-31 14:34N 49°17' W 123°06'0 0.0
2015-Mar-31 13:03N 49°17' W 123°06'0 0.0
2015-Mar-31 12:29N 49°17' W 123°06'0 0.0
2015-Mar-31 11:34N 49°17' W 123°06'0 0.0
2015-Mar-31 10:34N 49°17' W 123°06'0 0.0
2015-Mar-31 08:28N 49°17' W 123°06'0 0.0
2015-Mar-31 07:33N 49°17' W 123°06'0 0.0
2015-Mar-31 06:33N 49°17' W 123°06'0 0.0
2015-Mar-31 05:15N 49°17' W 123°06'0 0.0
2015-Mar-31 04:19N 49°17' W 123°06'0 0.0
2015-Mar-31 03:34N 49°17' W 123°06'0 0.0
2015-Mar-31 02:31N 49°17' W 123°06'0 0.0
2015-Mar-31 01:33N 49°17' W 123°06'0 0.0
2015-Mar-31 00:33N 49°17' W 123°06'0 0.0
2015-Mar-30 23:33N 49°17' W 123°06'0 0.0
2015-Mar-30 22:34N 49°17' W 123°06'1 0.6
2015-Mar-30 21:34N 49°18' W 123°06'0 0.2
2015-Mar-30 20:34N 49°18' W 123°06'1 0.9
2015-Mar-30 19:33N 49°17' W 123°07'0 0.0
2015-Mar-30 18:34N 49°17' W 123°07'1 1.2
2015-Mar-30 17:34N 49°18' W 123°05'1 1.2
2015-Mar-30 16:34N 49°17' W 123°07'0 0.4
2015-Mar-30 15:34N 49°17' W 123°06'0 0.0
2015-Mar-30 14:33N 49°17' W 123°06'0 0.0
2015-Mar-30 13:33N 49°17' W 123°06'0 0.0
2015-Mar-30 12:29N 49°17' W 123°06'0 0.0
2015-Mar-30 11:27N 49°17' W 123°06'0 0.0
2015-Mar-30 10:34N 49°17' W 123°06'0 0.0
2015-Mar-30 09:32N 49°17' W 123°06'0 0.0
2015-Mar-30 08:33N 49°17' W 123°06'0 0.0
2015-Mar-30 07:34N 49°17' W 123°06'0 0.0
2015-Mar-30 06:33N 49°17' W 123°06'0 0.0
2015-Mar-30 05:08N 49°17' W 123°06'0 0.1
2015-Mar-30 04:32N 49°17' W 123°06'0 0.1
2015-Mar-30 03:33N 49°17' W 123°06'0 0.0
2015-Mar-30 02:34N 49°17' W 123°06'0 0.0
2015-Mar-30 01:34N 49°17' W 123°06'0 0.0
2015-Mar-30 00:33N 49°17' W 123°06'0 0.0
2015-Mar-29 23:33N 49°17' W 123°06'0 0.0
2015-Mar-29 22:34N 49°17' W 123°06'0 0.0
2015-Mar-29 21:32N 49°17' W 123°06'0 0.0
2015-Mar-29 20:32N 49°17' W 123°06'0 0.0
2015-Mar-29 19:34N 49°17' W 123°06'0 0.0
2015-Mar-29 18:33N 49°17' W 123°06'0 0.0
2015-Mar-29 17:34N 49°17' W 123°06'0 0.0
2015-Mar-29 16:32N 49°17' W 123°06'0 0.0
2015-Mar-29 15:33N 49°17' W 123°06'0 0.0
2015-Mar-29 14:34N 49°17' W 123°06'0 0.0
2015-Mar-29 13:33N 49°17' W 123°06'0 0.0
2015-Mar-29 12:30N 49°17' W 123°06'0 0.0
2015-Mar-29 11:33N 49°17' W 123°06'0 0.0
2015-Mar-29 10:34N 49°17' W 123°06'0 0.0
2015-Mar-29 09:21N 49°17' W 123°06'0 0.0
2015-Mar-29 08:34N 49°17' W 123°06'0 0.0
2015-Mar-29 07:32N 49°17' W 123°06'0 0.0
2015-Mar-29 06:33N 49°17' W 123°06'0 0.0
2015-Mar-29 05:14N 49°17' W 123°06'0 0.1
2015-Mar-29 04:32N 49°17' W 123°06'0 0.0
2015-Mar-29 03:33N 49°17' W 123°06'0 0.0
2015-Mar-29 02:33N 49°17' W 123°06'0 0.0
2015-Mar-29 01:33N 49°17' W 123°06'0 0.0
2015-Mar-29 00:34N 49°17' W 123°06'0 0.0
2015-Mar-28 23:34N 49°17' W 123°06'0 0.0
2015-Mar-28 22:34N 49°17' W 123°06'0 0.0
2015-Mar-28 21:33N 49°17' W 123°06'0 0.0
2015-Mar-28 20:26N 49°17' W 123°06'0 0.0
2015-Mar-28 19:34N 49°17' W 123°06'0 0.0
2015-Mar-28 18:32N 49°17' W 123°06'0 0.0
2015-Mar-28 17:30N 49°17' W 123°06'0 0.0
2015-Mar-28 16:33N 49°17' W 123°06'0 0.0
2015-Mar-28 15:33N 49°17' W 123°06'0 0.0
2015-Mar-28 14:34N 49°17' W 123°06'0 0.0
2015-Mar-28 13:34N 49°17' W 123°06'0 0.0
2015-Mar-28 12:32N 49°17' W 123°06'0 0.0
2015-Mar-28 11:34N 49°17' W 123°06'0 0.0
2015-Mar-28 10:34N 49°17' W 123°06'0 0.0
2015-Mar-28 09:12N 49°17' W 123°06'0 0.0
2015-Mar-28 08:33N 49°17' W 123°06'0 0.0
2015-Mar-28 07:34N 49°17' W 123°06'0 0.0
2015-Mar-28 06:34N 49°17' W 123°06'0 0.0
2015-Mar-28 05:12N 49°17' W 123°06'0 0.1
2015-Mar-28 04:34N 49°17' W 123°06'0 0.0
2015-Mar-28 03:33N 49°17' W 123°06'0 0.0
2015-Mar-28 02:34N 49°17' W 123°06'0 0.0
2015-Mar-28 01:34N 49°17' W 123°06'0 0.0
2015-Mar-28 00:32N 49°17' W 123°06'0 0.0
2015-Mar-27 23:34N 49°17' W 123°06'0 0.0
2015-Mar-27 22:34N 49°17' W 123°06'0 0.0
2015-Mar-27 21:33N 49°17' W 123°06'0 0.0
2015-Mar-27 20:29N 49°17' W 123°06'0 0.0
2015-Mar-27 19:34N 49°17' W 123°06'0 0.0
2015-Mar-27 18:33N 49°17' W 123°06'0 0.0
2015-Mar-27 17:34N 49°17' W 123°06'0 0.0
2015-Mar-27 16:33N 49°17' W 123°06'0 0.0
2015-Mar-27 15:33N 49°17' W 123°06'0 0.0
2015-Mar-27 14:32N 49°17' W 123°06'0 0.0
2015-Mar-27 13:28N 49°17' W 123°06'0 0.0
2015-Mar-27 12:32N 49°17' W 123°06'0 0.0
2015-Mar-27 11:34N 49°17' W 123°06'0 0.0
2015-Mar-27 10:34N 49°17' W 123°06'0 0.0
2015-Mar-27 09:29N 49°17' W 123°06'0 0.0
2015-Mar-27 08:33N 49°17' W 123°06'0 0.0
2015-Mar-27 07:34N 49°17' W 123°06'0 0.0
2015-Mar-27 06:33N 49°17' W 123°06'0 0.0
2015-Mar-27 05:28N 49°17' W 123°06'0 0.0
2015-Mar-27 04:31N 49°17' W 123°06'0 0.0
2015-Mar-27 03:34N 49°17' W 123°06'0 0.0
2015-Mar-27 02:34N 49°17' W 123°06'0 0.0
2015-Mar-27 01:34N 49°17' W 123°06'0 0.0
2015-Mar-27 00:30N 49°17' W 123°06'0 0.0
2015-Mar-26 23:34N 49°17' W 123°06'0 0.0
2015-Mar-26 22:34N 49°17' W 123°06'0 0.0
2015-Mar-26 21:34N 49°17' W 123°06'0 0.0
2015-Mar-26 20:34N 49°17' W 123°06'0 0.0
2015-Mar-26 19:33N 49°17' W 123°06'0 0.0
2015-Mar-26 18:33N 49°17' W 123°06'0 0.0
2015-Mar-26 17:34N 49°17' W 123°06'0 0.0
2015-Mar-26 16:34N 49°17' W 123°06'0 0.0
2015-Mar-26 15:34N 49°17' W 123°06'0 0.0
2015-Mar-26 14:33N 49°17' W 123°06'0 0.0
2015-Mar-26 13:33N 49°17' W 123°06'0 0.0
2015-Mar-26 12:34N 49°17' W 123°06'0 0.0
2015-Mar-26 11:34N 49°17' W 123°06'0 0.0
2015-Mar-26 10:31N 49°17' W 123°06'0 0.0
2015-Mar-26 08:33N 49°17' W 123°06'0 0.0
2015-Mar-26 07:34N 49°17' W 123°06'0 0.0
2015-Mar-26 06:33N 49°17' W 123°06'0 0.0
2015-Mar-26 05:28N 49°17' W 123°06'0 0.0
2015-Mar-26 04:33N 49°17' W 123°06'0 0.0
2015-Mar-26 03:34N 49°17' W 123°06'0 0.0
2015-Mar-26 02:33N 49°17' W 123°06'0 0.0
2015-Mar-26 01:30N 49°17' W 123°06'0 0.0
2015-Mar-26 00:33N 49°17' W 123°06'2 1.9
2015-Mar-25 23:34N 49°18' W 123°03'3 2.6
2015-Mar-25 22:33N 49°18' W 123°07'1 1.4
2015-Mar-25 21:32N 49°17' W 123°06'0 0.0
2015-Mar-25 20:33N 49°17' W 123°06'0 0.0
2015-Mar-25 19:33N 49°17' W 123°06'0 0.0
2015-Mar-25 18:32N 49°17' W 123°06'3 3.5
2015-Mar-25 17:33N 49°18' W 123°01'4 4.2
2015-Mar-25 16:33N 49°19' W 123°07'2 1.5
2015-Mar-25 15:33N 49°17' W 123°06'0 0.0
2015-Mar-25 14:33N 49°17' W 123°06'0 0.0
2015-Mar-25 13:16N 49°17' W 123°06'0 0.0
2015-Mar-25 12:32N 49°17' W 123°06'0 0.0
2015-Mar-25 11:33N 49°17' W 123°06'0 0.0
2015-Mar-25 10:32N 49°17' W 123°06'0 0.0
2015-Mar-25 08:33N 49°17' W 123°06'0 0.0
2015-Mar-25 07:33N 49°17' W 123°06'0 0.0
2015-Mar-25 06:33N 49°17' W 123°06'0 0.0
2015-Mar-25 05:27N 49°17' W 123°06'0 0.0
2015-Mar-25 04:32N 49°17' W 123°06'0 0.0
2015-Mar-25 03:33N 49°17' W 123°06'0 0.0
2015-Mar-25 02:33N 49°17' W 123°06'0 0.0
2015-Mar-25 01:33N 49°17' W 123°06'0 0.0
2015-Mar-25 00:33N 49°17' W 123°06'0 0.0
2015-Mar-24 23:33N 49°17' W 123°06'0 0.0
2015-Mar-24 22:33N 49°17' W 123°06'0 0.0
2015-Mar-24 21:33N 49°17' W 123°06'0 0.0
2015-Mar-24 20:33N 49°17' W 123°06'0 0.0
2015-Mar-24 19:33N 49°17' W 123°06'0 0.0
2015-Mar-24 18:28N 49°17' W 123°06'4 3.9
2015-Mar-24 17:33N 49°18' W 123°01'4 3.5
2015-Mar-24 16:32N 49°17' W 123°06'0 0.0
2015-Mar-24 15:33N 49°17' W 123°06'0 0.0
2015-Mar-24 14:33N 49°17' W 123°06'0 0.0
2015-Mar-24 13:30N 49°17' W 123°06'0 0.0
2015-Mar-24 12:33N 49°17' W 123°06'0 0.0
2015-Mar-24 11:33N 49°17' W 123°06'0 0.0
2015-Mar-24 10:32N 49°17' W 123°06'0 0.0
2015-Mar-24 09:25N 49°17' W 123°06'0 0.0
2015-Mar-24 08:33N 49°17' W 123°06'0 0.0
2015-Mar-24 07:33N 49°17' W 123°06'0 0.0
2015-Mar-24 06:33N 49°17' W 123°06'0 0.0
2015-Mar-24 05:29N 49°17' W 123°06'0 0.0
2015-Mar-24 04:33N 49°17' W 123°06'0 0.0
2015-Mar-24 03:33N 49°17' W 123°06'0 0.0
2015-Mar-24 02:33N 49°17' W 123°06'0 0.0
2015-Mar-24 01:32N 49°17' W 123°06'0 0.0
2015-Mar-24 00:33N 49°17' W 123°06'0 0.0
2015-Mar-23 23:33N 49°17' W 123°06'0 0.0
2015-Mar-23 22:34N 49°17' W 123°06'0 0.0
2015-Mar-23 21:32N 49°17' W 123°06'0 0.0
2015-Mar-23 20:33N 49°17' W 123°06'0 0.0
2015-Mar-23 19:34N 49°17' W 123°06'0 0.0
2015-Mar-23 18:33N 49°17' W 123°06'0 0.0
2015-Mar-23 17:33N 49°17' W 123°06'0 0.0
2015-Mar-23 16:33N 49°17' W 123°06'  
Track history (hours):
 
Tides and Currents Weather Stations Pressure Air Temp Water Temp Dewpoint Dewpoint Depression Visibility Wind Speed Wind Dir Waves Ship Positions

Vfpa 1

Last reported at 2015-Apr-02 16:33 UTC. Time now 2015-May-05 13:17 UTC.
Position N 49°18' W 123°02'.
Warning: this ship's position is 32 days out of date.

; draft 1.4 m.

Type: Dredging. MMSI: 316014014.

Date/timePositionNaut miles runAvg speedWind from/ knotsBaromVisibWave heightAir tempDewpointWater temp
2015-Apr-02 16:33N 49°18' W 123°02'3 2.9
2015-Apr-02 15:33N 49°19' W 123°06'1 1.4
2015-Apr-02 14:33N 49°17' W 123°06'0 0.0
2015-Apr-02 13:31N 49°17' W 123°06'0 0.0
2015-Apr-02 12:33N 49°17' W 123°06'0 0.0
2015-Apr-02 11:33N 49°17' W 123°06'0 0.0
2015-Apr-02 10:33N 49°17' W 123°06'0 0.0
2015-Apr-02 09:30N 49°17' W 123°06'0 0.0
2015-Apr-02 08:29N 49°17' W 123°06'0 0.0
2015-Apr-02 07:33N 49°17' W 123°06'0 0.0
2015-Apr-02 06:33N 49°17' W 123°06'0 0.0
2015-Apr-02 05:33N 49°17' W 123°06'0 0.0
2015-Apr-02 04:33N 49°17' W 123°06'0 0.0
2015-Apr-02 03:28N 49°17' W 123°06'0 0.1
2015-Apr-02 02:33N 49°17' W 123°06'0 0.0
2015-Apr-02 01:33N 49°17' W 123°06'0 0.0
2015-Apr-02 00:33N 49°17' W 123°06'0 0.0
2015-Apr-01 23:33N 49°17' W 123°06'0 0.0
2015-Apr-01 22:33N 49°17' W 123°06'0 0.0
2015-Apr-01 21:32N 49°17' W 123°06'0 0.0
2015-Apr-01 20:33N 49°17' W 123°06'0 0.0
2015-Apr-01 19:33N 49°17' W 123°06'0 0.4
2015-Apr-01 18:33N 49°17' W 123°07'0 0.4
2015-Apr-01 17:33N 49°17' W 123°06'0 0.0
2015-Apr-01 16:33N 49°17' W 123°06'0 0.4
2015-Apr-01 15:33N 49°18' W 123°06'0 0.4
2015-Apr-01 14:33N 49°17' W 123°06'0 0.0
2015-Apr-01 13:34N 49°17' W 123°06'0 0.0
2015-Apr-01 12:32N 49°17' W 123°06'0 0.0
2015-Apr-01 11:34N 49°17' W 123°06'0 0.0
2015-Apr-01 10:34N 49°17' W 123°06'0 0.0
2015-Apr-01 09:19N 49°17' W 123°06'0 0.1
2015-Apr-01 08:23N 49°17' W 123°06'0 0.0
2015-Apr-01 07:34N 49°17' W 123°06'0 0.0
2015-Apr-01 06:34N 49°17' W 123°06'0 0.0
2015-Apr-01 04:32N 49°17' W 123°06'0 0.0
2015-Apr-01 03:33N 49°17' W 123°06'0 0.0
2015-Apr-01 02:32N 49°17' W 123°06'0 0.0
2015-Apr-01 01:33N 49°17' W 123°06'0 0.0
2015-Apr-01 00:33N 49°17' W 123°06'0 0.0
2015-Mar-31 23:34N 49°17' W 123°06'0 0.0
2015-Mar-31 22:34N 49°17' W 123°06'0 0.0
2015-Mar-31 21:34N 49°17' W 123°06'0 0.0
2015-Mar-31 20:20N 49°17' W 123°06'0 0.1
2015-Mar-31 19:34N 49°17' W 123°06'0 0.0
2015-Mar-31 18:34N 49°17' W 123°06'0 0.0
2015-Mar-31 17:29N 49°17' W 123°06'0 0.0
2015-Mar-31 16:33N 49°17' W 123°06'0 0.0
2015-Mar-31 15:33N 49°17' W 123°06'0 0.0
2015-Mar-31 14:34N 49°17' W 123°06'0 0.0
2015-Mar-31 13:03N 49°17' W 123°06'0 0.0
2015-Mar-31 12:29N 49°17' W 123°06'0 0.0
2015-Mar-31 11:34N 49°17' W 123°06'0 0.0
2015-Mar-31 10:34N 49°17' W 123°06'0 0.0
2015-Mar-31 08:28N 49°17' W 123°06'0 0.0
2015-Mar-31 07:33N 49°17' W 123°06'0 0.0
2015-Mar-31 06:33N 49°17' W 123°06'0 0.0
2015-Mar-31 05:15N 49°17' W 123°06'0 0.0
2015-Mar-31 04:19N 49°17' W 123°06'0 0.0
2015-Mar-31 03:34N 49°17' W 123°06'0 0.0
2015-Mar-31 02:31N 49°17' W 123°06'0 0.0
2015-Mar-31 01:33N 49°17' W 123°06'0 0.0
2015-Mar-31 00:33N 49°17' W 123°06'0 0.0
2015-Mar-30 23:33N 49°17' W 123°06'0 0.0
2015-Mar-30 22:34N 49°17' W 123°06'1 0.6
2015-Mar-30 21:34N 49°18' W 123°06'0 0.2
2015-Mar-30 20:34N 49°18' W 123°06'1 0.9
2015-Mar-30 19:33N 49°17' W 123°07'0 0.0
2015-Mar-30 18:34N 49°17' W 123°07'1 1.2
2015-Mar-30 17:34N 49°18' W 123°05'1 1.2
2015-Mar-30 16:34N 49°17' W 123°07'0 0.4
2015-Mar-30 15:34N 49°17' W 123°06'0 0.0
2015-Mar-30 14:33N 49°17' W 123°06'0 0.0
2015-Mar-30 13:33N 49°17' W 123°06'0 0.0
2015-Mar-30 12:29N 49°17' W 123°06'0 0.0
2015-Mar-30 11:27N 49°17' W 123°06'0 0.0
2015-Mar-30 10:34N 49°17' W 123°06'0 0.0
2015-Mar-30 09:32N 49°17' W 123°06'0 0.0
2015-Mar-30 08:33N 49°17' W 123°06'0 0.0
2015-Mar-30 07:34N 49°17' W 123°06'0 0.0
2015-Mar-30 06:33N 49°17' W 123°06'0 0.0
2015-Mar-30 05:08N 49°17' W 123°06'0 0.1
2015-Mar-30 04:32N 49°17' W 123°06'0 0.1
2015-Mar-30 03:33N 49°17' W 123°06'0 0.0
2015-Mar-30 02:34N 49°17' W 123°06'0 0.0
2015-Mar-30 01:34N 49°17' W 123°06'0 0.0
2015-Mar-30 00:33N 49°17' W 123°06'0 0.0
2015-Mar-29 23:33N 49°17' W 123°06'0 0.0
2015-Mar-29 22:34N 49°17' W 123°06'0 0.0
2015-Mar-29 21:32N 49°17' W 123°06'0 0.0
2015-Mar-29 20:32N 49°17' W 123°06'0 0.0
2015-Mar-29 19:34N 49°17' W 123°06'0 0.0
2015-Mar-29 18:33N 49°17' W 123°06'0 0.0
2015-Mar-29 17:34N 49°17' W 123°06'0 0.0
2015-Mar-29 16:32N 49°17' W 123°06'0 0.0
2015-Mar-29 15:33N 49°17' W 123°06'0 0.0
2015-Mar-29 14:34N 49°17' W 123°06'0 0.0
2015-Mar-29 13:33N 49°17' W 123°06'0 0.0
2015-Mar-29 12:30N 49°17' W 123°06'0 0.0
2015-Mar-29 11:33N 49°17' W 123°06'0 0.0
2015-Mar-29 10:34N 49°17' W 123°06'0 0.0
2015-Mar-29 09:21N 49°17' W 123°06'0 0.0
2015-Mar-29 08:34N 49°17' W 123°06'0 0.0
2015-Mar-29 07:32N 49°17' W 123°06'0 0.0
2015-Mar-29 06:33N 49°17' W 123°06'0 0.0
2015-Mar-29 05:14N 49°17' W 123°06'0 0.1
2015-Mar-29 04:32N 49°17' W 123°06'0 0.0
2015-Mar-29 03:33N 49°17' W 123°06'0 0.0
2015-Mar-29 02:33N 49°17' W 123°06'0 0.0
2015-Mar-29 01:33N 49°17' W 123°06'0 0.0
2015-Mar-29 00:34N 49°17' W 123°06'0 0.0
2015-Mar-28 23:34N 49°17' W 123°06'0 0.0
2015-Mar-28 22:34N 49°17' W 123°06'0 0.0
2015-Mar-28 21:33N 49°17' W 123°06'0 0.0
2015-Mar-28 20:26N 49°17' W 123°06'0 0.0
2015-Mar-28 19:34N 49°17' W 123°06'0 0.0
2015-Mar-28 18:32N 49°17' W 123°06'0 0.0
2015-Mar-28 17:30N 49°17' W 123°06'0 0.0
2015-Mar-28 16:33N 49°17' W 123°06'0 0.0
2015-Mar-28 15:33N 49°17' W 123°06'0 0.0
2015-Mar-28 14:34N 49°17' W 123°06'0 0.0
2015-Mar-28 13:34N 49°17' W 123°06'0 0.0
2015-Mar-28 12:32N 49°17' W 123°06'0 0.0
2015-Mar-28 11:34N 49°17' W 123°06'0 0.0
2015-Mar-28 10:34N 49°17' W 123°06'0 0.0
2015-Mar-28 09:12N 49°17' W 123°06'0 0.0
2015-Mar-28 08:33N 49°17' W 123°06'0 0.0
2015-Mar-28 07:34N 49°17' W 123°06'0 0.0
2015-Mar-28 06:34N 49°17' W 123°06'0 0.0
2015-Mar-28 05:12N 49°17' W 123°06'0 0.1
2015-Mar-28 04:34N 49°17' W 123°06'0 0.0
2015-Mar-28 03:33N 49°17' W 123°06'0 0.0
2015-Mar-28 02:34N 49°17' W 123°06'0 0.0
2015-Mar-28 01:34N 49°17' W 123°06'0 0.0
2015-Mar-28 00:32N 49°17' W 123°06'0 0.0
2015-Mar-27 23:34N 49°17' W 123°06'0 0.0
2015-Mar-27 22:34N 49°17' W 123°06'0 0.0
2015-Mar-27 21:33N 49°17' W 123°06'0 0.0
2015-Mar-27 20:29N 49°17' W 123°06'0 0.0
2015-Mar-27 19:34N 49°17' W 123°06'0 0.0
2015-Mar-27 18:33N 49°17' W 123°06'0 0.0
2015-Mar-27 17:34N 49°17' W 123°06'0 0.0
2015-Mar-27 16:33N 49°17' W 123°06'0 0.0
2015-Mar-27 15:33N 49°17' W 123°06'0 0.0
2015-Mar-27 14:32N 49°17' W 123°06'0 0.0
2015-Mar-27 13:28N 49°17' W 123°06'0 0.0
2015-Mar-27 12:32N 49°17' W 123°06'0 0.0
2015-Mar-27 11:34N 49°17' W 123°06'0 0.0
2015-Mar-27 10:34N 49°17' W 123°06'0 0.0
2015-Mar-27 09:29N 49°17' W 123°06'0 0.0
2015-Mar-27 08:33N 49°17' W 123°06'0 0.0
2015-Mar-27 07:34N 49°17' W 123°06'0 0.0
2015-Mar-27 06:33N 49°17' W 123°06'0 0.0
2015-Mar-27 05:28N 49°17' W 123°06'0 0.0
2015-Mar-27 04:31N 49°17' W 123°06'0 0.0
2015-Mar-27 03:34N 49°17' W 123°06'0 0.0
2015-Mar-27 02:34N 49°17' W 123°06'0 0.0
2015-Mar-27 01:34N 49°17' W 123°06'0 0.0
2015-Mar-27 00:30N 49°17' W 123°06'0 0.0
2015-Mar-26 23:34N 49°17' W 123°06'0 0.0
2015-Mar-26 22:34N 49°17' W 123°06'0 0.0
2015-Mar-26 21:34N 49°17' W 123°06'0 0.0
2015-Mar-26 20:34N 49°17' W 123°06'0 0.0
2015-Mar-26 19:33N 49°17' W 123°06'0 0.0
2015-Mar-26 18:33N 49°17' W 123°06'0 0.0
2015-Mar-26 17:34N 49°17' W 123°06'0 0.0
2015-Mar-26 16:34N 49°17' W 123°06'0 0.0
2015-Mar-26 15:34N 49°17' W 123°06'0 0.0
2015-Mar-26 14:33N 49°17' W 123°06'0 0.0
2015-Mar-26 13:33N 49°17' W 123°06'0 0.0
2015-Mar-26 12:34N 49°17' W 123°06'0 0.0
2015-Mar-26 11:34N 49°17' W 123°06'0 0.0
2015-Mar-26 10:31N 49°17' W 123°06'0 0.0
2015-Mar-26 08:33N 49°17' W 123°06'0 0.0
2015-Mar-26 07:34N 49°17' W 123°06'0 0.0
2015-Mar-26 06:33N 49°17' W 123°06'0 0.0
2015-Mar-26 05:28N 49°17' W 123°06'0 0.0
2015-Mar-26 04:33N 49°17' W 123°06'0 0.0
2015-Mar-26 03:34N 49°17' W 123°06'0 0.0
2015-Mar-26 02:33N 49°17' W 123°06'0 0.0
2015-Mar-26 01:30N 49°17' W 123°06'0 0.0
2015-Mar-26 00:33N 49°17' W 123°06'2 1.9
2015-Mar-25 23:34N 49°18' W 123°03'3 2.6
2015-Mar-25 22:33N 49°18' W 123°07'1 1.4
2015-Mar-25 21:32N 49°17' W 123°06'0 0.0
2015-Mar-25 20:33N 49°17' W 123°06'0 0.0
2015-Mar-25 19:33N 49°17' W 123°06'0 0.0
2015-Mar-25 18:32N 49°17' W 123°06'3 3.5
2015-Mar-25 17:33N 49°18' W 123°01'4 4.2
2015-Mar-25 16:33N 49°19' W 123°07'2 1.5
2015-Mar-25 15:33N 49°17' W 123°06'0 0.0
2015-Mar-25 14:33N 49°17' W 123°06'0 0.0
2015-Mar-25 13:16N 49°17' W 123°06'0 0.0
2015-Mar-25 12:32N 49°17' W 123°06'0 0.0
2015-Mar-25 11:33N 49°17' W 123°06'0 0.0
2015-Mar-25 10:32N 49°17' W 123°06'0 0.0
2015-Mar-25 08:33N 49°17' W 123°06'0 0.0
2015-Mar-25 07:33N 49°17' W 123°06'0 0.0
2015-Mar-25 06:33N 49°17' W 123°06'0 0.0
2015-Mar-25 05:27N 49°17' W 123°06'0 0.0
2015-Mar-25 04:32N 49°17' W 123°06'0 0.0
2015-Mar-25 03:33N 49°17' W 123°06'0 0.0
2015-Mar-25 02:33N 49°17' W 123°06'0 0.0
2015-Mar-25 01:33N 49°17' W 123°06'0 0.0
2015-Mar-25 00:33N 49°17' W 123°06'0 0.0
2015-Mar-24 23:33N 49°17' W 123°06'0 0.0
2015-Mar-24 22:33N 49°17' W 123°06'0 0.0
2015-Mar-24 21:33N 49°17' W 123°06'0 0.0
2015-Mar-24 20:33N 49°17' W 123°06'0 0.0
2015-Mar-24 19:33N 49°17' W 123°06'0 0.0
2015-Mar-24 18:28N 49°17' W 123°06'4 3.9
2015-Mar-24 17:33N 49°18' W 123°01'4 3.5
2015-Mar-24 16:32N 49°17' W 123°06'0 0.0
2015-Mar-24 15:33N 49°17' W 123°06'0 0.0
2015-Mar-24 14:33N 49°17' W 123°06'0 0.0
2015-Mar-24 13:30N 49°17' W 123°06'0 0.0
2015-Mar-24 12:33N 49°17' W 123°06'0 0.0
2015-Mar-24 11:33N 49°17' W 123°06'0 0.0
2015-Mar-24 10:32N 49°17' W 123°06'0 0.0
2015-Mar-24 09:25N 49°17' W 123°06'0 0.0
2015-Mar-24 08:33N 49°17' W 123°06'0 0.0
2015-Mar-24 07:33N 49°17' W 123°06'0 0.0
2015-Mar-24 06:33N 49°17' W 123°06'0 0.0
2015-Mar-24 05:29N 49°17' W 123°06'0 0.0
2015-Mar-24 04:33N 49°17' W 123°06'0 0.0
2015-Mar-24 03:33N 49°17' W 123°06'0 0.0
2015-Mar-24 02:33N 49°17' W 123°06'0 0.0
2015-Mar-24 01:32N 49°17' W 123°06'0 0.0
2015-Mar-24 00:33N 49°17' W 123°06'0 0.0
2015-Mar-23 23:33N 49°17' W 123°06'0 0.0
2015-Mar-23 22:34N 49°17' W 123°06'0 0.0
2015-Mar-23 21:32N 49°17' W 123°06'0 0.0
2015-Mar-23 20:33N 49°17' W 123°06'0 0.0
2015-Mar-23 19:34N 49°17' W 123°06'0 0.0
2015-Mar-23 18:33N 49°17' W 123°06'0 0.0
2015-Mar-23 17:33N 49°17' W 123°06'0 0.0
2015-Mar-23 16:33N 49°17' W 123°06'  

Dump ship's entire track history